sensor_id;sensor_type;location;lat;lon;timestamp;P1;durP1;ratioP1;P2;durP2;ratioP2
19113;SDS011;9689;51.052;13.772;2023-10-08T00:03:34;18.25;;;7.55;;
19113;SDS011;9689;51.052;13.772;2023-10-08T00:08:37;10.25;;;3.75;;
19113;SDS011;9689;51.052;13.772;2023-10-08T00:13:39;10.32;;;4.28;;
19113;SDS011;9689;51.052;13.772;2023-10-08T00:18:41;12.82;;;3.88;;
19113;SDS011;9689;51.052;13.772;2023-10-08T00:23:48;12.85;;;4.18;;
19113;SDS011;9689;51.052;13.772;2023-10-08T00:28:55;12.32;;;3.85;;
19113;SDS011;9689;51.052;13.772;2023-10-08T00:33:56;10.05;;;3.35;;
19113;SDS011;9689;51.052;13.772;2023-10-08T00:38:57;9.55;;;3.63;;
19113;SDS011;9689;51.052;13.772;2023-10-08T00:44:01;9.73;;;4.03;;
19113;SDS011;9689;51.052;13.772;2023-10-08T00:49:05;8.60;;;3.58;;
19113;SDS011;9689;51.052;13.772;2023-10-08T00:54:23;19.95;;;4.10;;
19113;SDS011;9689;51.052;13.772;2023-10-08T00:59:29;15.15;;;4.32;;
19113;SDS011;9689;51.052;13.772;2023-10-08T01:04:33;12.88;;;4.10;;
19113;SDS011;9689;51.052;13.772;2023-10-08T01:09:34;9.10;;;3.47;;
19113;SDS011;9689;51.052;13.772;2023-10-08T01:14:37;17.10;;;4.18;;
19113;SDS011;9689;51.052;13.772;2023-10-08T01:19:41;18.73;;;6.72;;
19113;SDS011;9689;51.052;13.772;2023-10-08T01:24:46;15.98;;;5.47;;
19113;SDS011;9689;51.052;13.772;2023-10-08T01:29:48;14.40;;;5.45;;
19113;SDS011;9689;51.052;13.772;2023-10-08T01:34:51;12.25;;;6.07;;
19113;SDS011;9689;51.052;13.772;2023-10-08T01:39:53;17.50;;;7.70;;
19113;SDS011;9689;51.052;13.772;2023-10-08T01:45:01;19.90;;;9.05;;
19113;SDS011;9689;51.052;13.772;2023-10-08T01:50:06;19.85;;;8.95;;
19113;SDS011;9689;51.052;13.772;2023-10-08T01:55:22;6.47;;;3.63;;
19113;SDS011;9689;51.052;13.772;2023-10-08T02:00:23;3.38;;;2.10;;
19113;SDS011;9689;51.052;13.772;2023-10-08T02:05:25;1.88;;;1.10;;
19113;SDS011;9689;51.052;13.772;2023-10-08T02:10:31;1.38;;;0.70;;
19113;SDS011;9689;51.052;13.772;2023-10-08T02:15:34;0.95;;;0.70;;
19113;SDS011;9689;51.052;13.772;2023-10-08T02:20:38;0.40;;;0.30;;
19113;SDS011;9689;51.052;13.772;2023-10-08T02:25:40;0.25;;;0.22;;
19113;SDS011;9689;51.052;13.772;2023-10-08T02:30:41;0.20;;;0.10;;
19113;SDS011;9689;51.052;13.772;2023-10-08T02:35:43;1.85;;;0.10;;
19113;SDS011;9689;51.052;13.772;2023-10-08T02:40:47;0.20;;;0.20;;
19113;SDS011;9689;51.052;13.772;2023-10-08T02:45:48;0.88;;;0.20;;
19113;SDS011;9689;51.052;13.772;2023-10-08T02:50:50;0.00;;;0.00;;
19113;SDS011;9689;51.052;13.772;2023-10-08T02:55:54;0.85;;;0.20;;
19113;SDS011;9689;51.052;13.772;2023-10-08T03:00:55;0.05;;;0.05;;
19113;SDS011;9689;51.052;13.772;2023-10-08T03:05:56;0.00;;;0.00;;
19113;SDS011;9689;51.052;13.772;2023-10-08T03:10:58;0.45;;;0.13;;
19113;SDS011;9689;51.052;13.772;2023-10-08T03:16:03;1.67;;;0.10;;
19113;SDS011;9689;51.052;13.772;2023-10-08T03:21:08;0.63;;;0.13;;
19113;SDS011;9689;51.052;13.772;2023-10-08T03:26:24;0.10;;;0.10;;
19113;SDS011;9689;51.052;13.772;2023-10-08T03:31:34;0.20;;;0.10;;
19113;SDS011;9689;51.052;13.772;2023-10-08T03:36:52;0.20;;;0.10;;
19113;SDS011;9689;51.052;13.772;2023-10-08T03:42:00;0.80;;;0.30;;
19113;SDS011;9689;51.052;13.772;2023-10-08T03:47:09;3.25;;;0.60;;
19113;SDS011;9689;51.052;13.772;2023-10-08T03:52:11;6.65;;;1.35;;
19113;SDS011;9689;51.052;13.772;2023-10-08T03:57:13;11.65;;;1.88;;
19113;SDS011;9689;51.052;13.772;2023-10-08T04:02:19;7.60;;;1.45;;
19113;SDS011;9689;51.052;13.772;2023-10-08T04:07:32;6.53;;;1.67;;
19113;SDS011;9689;51.052;13.772;2023-10-08T04:13:01;6.40;;;1.20;;
19113;SDS011;9689;51.052;13.772;2023-10-08T04:18:02;7.78;;;1.35;;
19113;SDS011;9689;51.052;13.772;2023-10-08T04:23:04;6.43;;;2.28;;
19113;SDS011;9689;51.052;13.772;2023-10-08T04:28:14;4.60;;;1.55;;
19113;SDS011;9689;51.052;13.772;2023-10-08T04:33:19;6.30;;;1.65;;
19113;SDS011;9689;51.052;13.772;2023-10-08T04:38:23;5.47;;;1.23;;
19113;SDS011;9689;51.052;13.772;2023-10-08T04:43:27;7.18;;;1.15;;
19113;SDS011;9689;51.052;13.772;2023-10-08T04:48:29;7.45;;;1.80;;
19113;SDS011;9689;51.052;13.772;2023-10-08T04:53:33;6.00;;;1.30;;
19113;SDS011;9689;51.052;13.772;2023-10-08T04:58:39;5.40;;;1.00;;
19113;SDS011;9689;51.052;13.772;2023-10-08T05:03:40;6.57;;;1.40;;
19113;SDS011;9689;51.052;13.772;2023-10-08T05:08:54;6.88;;;1.27;;
19113;SDS011;9689;51.052;13.772;2023-10-08T05:14:00;7.53;;;1.17;;
19113;SDS011;9689;51.052;13.772;2023-10-08T05:19:15;3.90;;;1.10;;
19113;SDS011;9689;51.052;13.772;2023-10-08T05:24:46;5.45;;;1.23;;
19113;SDS011;9689;51.052;13.772;2023-10-08T05:30:08;2.55;;;1.15;;
19113;SDS011;9689;51.052;13.772;2023-10-08T05:35:16;4.60;;;1.75;;
19113;SDS011;9689;51.052;13.772;2023-10-08T05:40:49;5.53;;;2.00;;
19113;SDS011;9689;51.052;13.772;2023-10-08T05:46:26;5.07;;;0.93;;
19113;SDS011;9689;51.052;13.772;2023-10-08T05:51:46;2.90;;;1.10;;
19113;SDS011;9689;51.052;13.772;2023-10-08T05:57:10;3.03;;;1.10;;
19113;SDS011;9689;51.052;13.772;2023-10-08T06:02:36;3.92;;;1.30;;
19113;SDS011;9689;51.052;13.772;2023-10-08T06:08:00;3.78;;;1.15;;
19113;SDS011;9689;51.052;13.772;2023-10-08T06:13:13;3.53;;;0.98;;
19113;SDS011;9689;51.052;13.772;2023-10-08T06:18:18;6.28;;;1.00;;
19113;SDS011;9689;51.052;13.772;2023-10-08T06:23:25;5.15;;;1.17;;
19113;SDS011;9689;51.052;13.772;2023-10-08T06:28:27;3.95;;;2.10;;
19113;SDS011;9689;51.052;13.772;2023-10-08T06:33:30;3.45;;;1.30;;
19113;SDS011;9689;51.052;13.772;2023-10-08T06:38:33;6.43;;;1.73;;
19113;SDS011;9689;51.052;13.772;2023-10-08T06:43:34;8.68;;;1.92;;
19113;SDS011;9689;51.052;13.772;2023-10-08T06:48:37;3.80;;;1.15;;
19113;SDS011;9689;51.052;13.772;2023-10-08T06:53:42;3.38;;;1.00;;
19113;SDS011;9689;51.052;13.772;2023-10-08T06:58:44;3.58;;;1.30;;
19113;SDS011;9689;51.052;13.772;2023-10-08T07:03:49;3.72;;;1.00;;
19113;SDS011;9689;51.052;13.772;2023-10-08T07:08:51;4.28;;;1.55;;
19113;SDS011;9689;51.052;13.772;2023-10-08T07:13:55;12.30;;;1.75;;
19113;SDS011;9689;51.052;13.772;2023-10-08T07:18:57;2.85;;;0.98;;
19113;SDS011;9689;51.052;13.772;2023-10-08T07:24:05;2.05;;;1.02;;
19113;SDS011;9689;51.052;13.772;2023-10-08T07:29:14;2.38;;;1.10;;
19113;SDS011;9689;51.052;13.772;2023-10-08T07:34:18;3.92;;;1.10;;
19113;SDS011;9689;51.052;13.772;2023-10-08T07:39:25;4.38;;;0.98;;
19113;SDS011;9689;51.052;13.772;2023-10-08T07:44:33;2.55;;;1.33;;
19113;SDS011;9689;51.052;13.772;2023-10-08T07:49:37;5.65;;;1.42;;
19113;SDS011;9689;51.052;13.772;2023-10-08T07:54:39;2.20;;;0.93;;
19113;SDS011;9689;51.052;13.772;2023-10-08T07:59:40;2.85;;;1.23;;
19113;SDS011;9689;51.052;13.772;2023-10-08T08:04:50;9.73;;;1.30;;
19113;SDS011;9689;51.052;13.772;2023-10-08T08:09:52;1.83;;;0.98;;
19113;SDS011;9689;51.052;13.772;2023-10-08T08:14:58;5.78;;;1.55;;
19113;SDS011;9689;51.052;13.772;2023-10-08T08:20:04;4.88;;;1.63;;
19113;SDS011;9689;51.052;13.772;2023-10-08T08:25:17;3.65;;;1.20;;
19113;SDS011;9689;51.052;13.772;2023-10-08T08:30:26;2.60;;;1.10;;
19113;SDS011;9689;51.052;13.772;2023-10-08T08:35:28;1.73;;;1.05;;
19113;SDS011;9689;51.052;13.772;2023-10-08T08:40:29;5.80;;;1.30;;
19113;SDS011;9689;51.052;13.772;2023-10-08T08:45:30;2.30;;;1.13;;
19113;SDS011;9689;51.052;13.772;2023-10-08T08:50:34;4.43;;;1.23;;
19113;SDS011;9689;51.052;13.772;2023-10-08T08:55:38;6.35;;;1.65;;
19113;SDS011;9689;51.052;13.772;2023-10-08T09:00:40;2.58;;;1.30;;
19113;SDS011;9689;51.052;13.772;2023-10-08T09:05:45;4.28;;;1.80;;
19113;SDS011;9689;51.052;13.772;2023-10-08T09:10:50;2.70;;;1.50;;
19113;SDS011;9689;51.052;13.772;2023-10-08T09:15:51;5.50;;;1.42;;
19113;SDS011;9689;51.052;13.772;2023-10-08T09:20:56;4.40;;;1.30;;
19113;SDS011;9689;51.052;13.772;2023-10-08T09:25:58;5.47;;;1.70;;
19113;SDS011;9689;51.052;13.772;2023-10-08T09:31:03;9.00;;;2.03;;
19113;SDS011;9689;51.052;13.772;2023-10-08T09:36:08;4.28;;;1.63;;
19113;SDS011;9689;51.052;13.772;2023-10-08T09:41:17;7.97;;;1.70;;
19113;SDS011;9689;51.052;13.772;2023-10-08T09:46:20;7.50;;;1.70;;
19113;SDS011;9689;51.052;13.772;2023-10-08T09:51:31;5.72;;;1.98;;
19113;SDS011;9689;51.052;13.772;2023-10-08T09:56:33;7.00;;;2.00;;
19113;SDS011;9689;51.052;13.772;2023-10-08T10:01:35;6.93;;;1.75;;
19113;SDS011;9689;51.052;13.772;2023-10-08T10:06:40;10.13;;;2.60;;
19113;SDS011;9689;51.052;13.772;2023-10-08T10:11:45;8.90;;;2.30;;
19113;SDS011;9689;51.052;13.772;2023-10-08T10:16:48;7.30;;;1.77;;
19113;SDS011;9689;51.052;13.772;2023-10-08T10:22:11;7.80;;;2.00;;
19113;SDS011;9689;51.052;13.772;2023-10-08T10:27:16;6.05;;;1.77;;
19113;SDS011;9689;51.052;13.772;2023-10-08T10:32:18;8.68;;;2.03;;
19113;SDS011;9689;51.052;13.772;2023-10-08T10:37:20;9.32;;;2.47;;
19113;SDS011;9689;51.052;13.772;2023-10-08T10:42:22;5.07;;;1.83;;
19113;SDS011;9689;51.052;13.772;2023-10-08T10:47:28;7.05;;;2.30;;
19113;SDS011;9689;51.052;13.772;2023-10-08T10:52:43;9.23;;;1.90;;
19113;SDS011;9689;51.052;13.772;2023-10-08T10:57:53;10.30;;;2.25;;
19113;SDS011;9689;51.052;13.772;2023-10-08T11:02:56;8.20;;;2.10;;
19113;SDS011;9689;51.052;13.772;2023-10-08T11:08:01;6.63;;;1.50;;
19113;SDS011;9689;51.052;13.772;2023-10-08T11:13:06;6.80;;;1.70;;
19113;SDS011;9689;51.052;13.772;2023-10-08T11:18:14;9.68;;;1.98;;
19113;SDS011;9689;51.052;13.772;2023-10-08T11:28:36;6.38;;;2.05;;
19113;SDS011;9689;51.052;13.772;2023-10-08T11:33:42;3.88;;;1.42;;
19113;SDS011;9689;51.052;13.772;2023-10-08T11:38:55;6.95;;;2.20;;
19113;SDS011;9689;51.052;13.772;2023-10-08T11:44:00;13.10;;;2.00;;
19113;SDS011;9689;51.052;13.772;2023-10-08T11:49:03;9.60;;;1.85;;
19113;SDS011;9689;51.052;13.772;2023-10-08T11:54:06;7.57;;;1.60;;
19113;SDS011;9689;51.052;13.772;2023-10-08T11:59:11;8.25;;;1.73;;
19113;SDS011;9689;51.052;13.772;2023-10-08T12:04:12;4.70;;;1.80;;
19113;SDS011;9689;51.052;13.772;2023-10-08T12:09:18;4.32;;;1.75;;
19113;SDS011;9689;51.052;13.772;2023-10-08T12:14:21;5.43;;;1.67;;
19113;SDS011;9689;51.052;13.772;2023-10-08T12:19:26;6.78;;;1.55;;
19113;SDS011;9689;51.052;13.772;2023-10-08T12:24:33;8.93;;;1.20;;
19113;SDS011;9689;51.052;13.772;2023-10-08T12:29:34;4.88;;;1.88;;
19113;SDS011;9689;51.052;13.772;2023-10-08T12:34:36;4.35;;;1.50;;
19113;SDS011;9689;51.052;13.772;2023-10-08T12:39:40;6.78;;;2.22;;
19113;SDS011;9689;51.052;13.772;2023-10-08T12:44:57;4.85;;;1.38;;
19113;SDS011;9689;51.052;13.772;2023-10-08T12:50:01;2.92;;;1.27;;
19113;SDS011;9689;51.052;13.772;2023-10-08T12:55:08;4.15;;;1.10;;
19113;SDS011;9689;51.052;13.772;2023-10-08T13:00:10;4.50;;;1.42;;
19113;SDS011;9689;51.052;13.772;2023-10-08T13:05:12;8.15;;;1.92;;
19113;SDS011;9689;51.052;13.772;2023-10-08T13:10:17;7.80;;;1.92;;
19113;SDS011;9689;51.052;13.772;2023-10-08T13:15:18;9.68;;;1.80;;
19113;SDS011;9689;51.052;13.772;2023-10-08T13:20:19;5.95;;;1.67;;
19113;SDS011;9689;51.052;13.772;2023-10-08T13:25:22;6.07;;;1.10;;
19113;SDS011;9689;51.052;13.772;2023-10-08T13:30:26;3.20;;;1.20;;
19113;SDS011;9689;51.052;13.772;2023-10-08T13:35:27;3.13;;;0.95;;
19113;SDS011;9689;51.052;13.772;2023-10-08T13:40:30;2.72;;;1.00;;
19113;SDS011;9689;51.052;13.772;2023-10-08T13:45:32;3.90;;;1.23;;
19113;SDS011;9689;51.052;13.772;2023-10-08T13:50:37;5.57;;;1.35;;
19113;SDS011;9689;51.052;13.772;2023-10-08T13:55:40;3.75;;;1.35;;
19113;SDS011;9689;51.052;13.772;2023-10-08T14:00:45;7.07;;;1.73;;
19113;SDS011;9689;51.052;13.772;2023-10-08T14:05:49;7.13;;;1.45;;
19113;SDS011;9689;51.052;13.772;2023-10-08T14:10:52;4.95;;;1.50;;
19113;SDS011;9689;51.052;13.772;2023-10-08T14:15:56;7.63;;;1.35;;
19113;SDS011;9689;51.052;13.772;2023-10-08T14:20:58;6.07;;;1.52;;
19113;SDS011;9689;51.052;13.772;2023-10-08T14:26:00;3.22;;;1.10;;
19113;SDS011;9689;51.052;13.772;2023-10-08T14:31:05;6.32;;;1.58;;
19113;SDS011;9689;51.052;13.772;2023-10-08T14:36:07;3.00;;;1.00;;
19113;SDS011;9689;51.052;13.772;2023-10-08T14:41:27;3.88;;;2.03;;
19113;SDS011;9689;51.052;13.772;2023-10-08T14:46:46;4.55;;;1.65;;
19113;SDS011;9689;51.052;13.772;2023-10-08T14:51:48;5.20;;;1.50;;
19113;SDS011;9689;51.052;13.772;2023-10-08T14:56:54;5.28;;;1.80;;
19113;SDS011;9689;51.052;13.772;2023-10-08T15:01:56;3.83;;;1.40;;
19113;SDS011;9689;51.052;13.772;2023-10-08T15:06:57;3.60;;;1.50;;
19113;SDS011;9689;51.052;13.772;2023-10-08T15:12:00;4.80;;;1.90;;
19113;SDS011;9689;51.052;13.772;2023-10-08T15:17:02;11.18;;;1.80;;
19113;SDS011;9689;51.052;13.772;2023-10-08T15:22:03;5.70;;;1.65;;
19113;SDS011;9689;51.052;13.772;2023-10-08T15:27:05;5.28;;;2.30;;
19113;SDS011;9689;51.052;13.772;2023-10-08T15:32:06;5.65;;;2.20;;
19113;SDS011;9689;51.052;13.772;2023-10-08T15:37:07;6.07;;;2.28;;
19113;SDS011;9689;51.052;13.772;2023-10-08T15:42:09;8.05;;;2.03;;
19113;SDS011;9689;51.052;13.772;2023-10-08T15:47:11;9.68;;;1.98;;
19113;SDS011;9689;51.052;13.772;2023-10-08T15:52:12;5.05;;;1.98;;
19113;SDS011;9689;51.052;13.772;2023-10-08T15:57:15;5.60;;;2.28;;
19113;SDS011;9689;51.052;13.772;2023-10-08T16:02:16;6.82;;;1.75;;
19113;SDS011;9689;51.052;13.772;2023-10-08T16:07:17;6.55;;;2.38;;
19113;SDS011;9689;51.052;13.772;2023-10-08T16:12:20;8.25;;;2.42;;
19113;SDS011;9689;51.052;13.772;2023-10-08T16:17:20;6.93;;;1.90;;
19113;SDS011;9689;51.052;13.772;2023-10-08T16:22:23;7.05;;;2.03;;
19113;SDS011;9689;51.052;13.772;2023-10-08T16:27:25;10.02;;;2.08;;
19113;SDS011;9689;51.052;13.772;2023-10-08T16:32:26;4.18;;;1.55;;
19113;SDS011;9689;51.052;13.772;2023-10-08T16:37:27;6.38;;;2.30;;
19113;SDS011;9689;51.052;13.772;2023-10-08T16:42:29;10.00;;;2.42;;
19113;SDS011;9689;51.052;13.772;2023-10-08T16:47:30;7.53;;;2.05;;
19113;SDS011;9689;51.052;13.772;2023-10-08T16:52:32;8.85;;;2.30;;
19113;SDS011;9689;51.052;13.772;2023-10-08T16:57:34;7.60;;;2.40;;
19113;SDS011;9689;51.052;13.772;2023-10-08T17:02:35;13.23;;;2.28;;
19113;SDS011;9689;51.052;13.772;2023-10-08T17:07:36;9.45;;;2.50;;
19113;SDS011;9689;51.052;13.772;2023-10-08T17:12:38;6.45;;;2.58;;
19113;SDS011;9689;51.052;13.772;2023-10-08T17:17:40;11.48;;;2.80;;
19113;SDS011;9689;51.052;13.772;2023-10-08T17:22:42;7.20;;;2.80;;
19113;SDS011;9689;51.052;13.772;2023-10-08T17:27:44;9.93;;;2.97;;
19113;SDS011;9689;51.052;13.772;2023-10-08T17:32:46;7.60;;;3.38;;
19113;SDS011;9689;51.052;13.772;2023-10-08T17:37:48;10.98;;;3.17;;
19113;SDS011;9689;51.052;13.772;2023-10-08T17:42:53;8.00;;;2.75;;
19113;SDS011;9689;51.052;13.772;2023-10-08T17:47:57;7.18;;;3.35;;
19113;SDS011;9689;51.052;13.772;2023-10-08T17:53:00;10.45;;;3.55;;
19113;SDS011;9689;51.052;13.772;2023-10-08T17:58:04;8.90;;;3.53;;
19113;SDS011;9689;51.052;13.772;2023-10-08T18:03:06;10.88;;;3.90;;
19113;SDS011;9689;51.052;13.772;2023-10-08T18:08:08;9.65;;;3.97;;
19113;SDS011;9689;51.052;13.772;2023-10-08T18:13:12;17.52;;;4.72;;
19113;SDS011;9689;51.052;13.772;2023-10-08T18:18:13;8.63;;;4.40;;
19113;SDS011;9689;51.052;13.772;2023-10-08T18:23:14;6.22;;;3.25;;
19113;SDS011;9689;51.052;13.772;2023-10-08T18:28:18;11.57;;;4.72;;
19113;SDS011;9689;51.052;13.772;2023-10-08T18:33:19;13.52;;;3.50;;
19113;SDS011;9689;51.052;13.772;2023-10-08T18:38:20;11.80;;;4.43;;
19113;SDS011;9689;51.052;13.772;2023-10-08T18:43:23;10.60;;;3.40;;
19113;SDS011;9689;51.052;13.772;2023-10-08T18:48:23;7.75;;;3.35;;
19113;SDS011;9689;51.052;13.772;2023-10-08T18:53:25;7.28;;;3.90;;
19113;SDS011;9689;51.052;13.772;2023-10-08T18:58:28;13.45;;;4.35;;
19113;SDS011;9689;51.052;13.772;2023-10-08T19:03:29;9.05;;;4.10;;
19113;SDS011;9689;51.052;13.772;2023-10-08T19:08:30;8.68;;;4.35;;
19113;SDS011;9689;51.052;13.772;2023-10-08T19:13:32;10.52;;;5.07;;
19113;SDS011;9689;51.052;13.772;2023-10-08T19:18:33;11.18;;;4.40;;
19113;SDS011;9689;51.052;13.772;2023-10-08T19:23:35;12.02;;;3.85;;
19113;SDS011;9689;51.052;13.772;2023-10-08T19:28:37;9.52;;;4.82;;
19113;SDS011;9689;51.052;13.772;2023-10-08T19:33:39;13.52;;;4.80;;
19113;SDS011;9689;51.052;13.772;2023-10-08T19:38:40;8.45;;;4.63;;
19113;SDS011;9689;51.052;13.772;2023-10-08T19:43:43;9.57;;;5.35;;
19113;SDS011;9689;51.052;13.772;2023-10-08T19:48:44;13.23;;;5.55;;
19113;SDS011;9689;51.052;13.772;2023-10-08T19:53:45;10.07;;;5.43;;
19113;SDS011;9689;51.052;13.772;2023-10-08T19:58:50;12.40;;;5.53;;
19113;SDS011;9689;51.052;13.772;2023-10-08T20:03:52;13.65;;;5.78;;
19113;SDS011;9689;51.052;13.772;2023-10-08T20:08:54;12.95;;;5.82;;
19113;SDS011;9689;51.052;13.772;2023-10-08T20:13:56;12.43;;;5.40;;
19113;SDS011;9689;51.052;13.772;2023-10-08T20:18:57;10.27;;;5.07;;
19113;SDS011;9689;51.052;13.772;2023-10-08T20:23:59;16.20;;;5.40;;
19113;SDS011;9689;51.052;13.772;2023-10-08T20:29:01;12.10;;;4.72;;
19113;SDS011;9689;51.052;13.772;2023-10-08T20:34:02;14.80;;;5.60;;
19113;SDS011;9689;51.052;13.772;2023-10-08T20:39:06;11.38;;;4.53;;
19113;SDS011;9689;51.052;13.772;2023-10-08T20:44:11;10.50;;;5.20;;
19113;SDS011;9689;51.052;13.772;2023-10-08T20:49:13;14.00;;;5.55;;
19113;SDS011;9689;51.052;13.772;2023-10-08T20:54:15;11.45;;;5.00;;
19113;SDS011;9689;51.052;13.772;2023-10-08T20:59:18;12.63;;;5.25;;
19113;SDS011;9689;51.052;13.772;2023-10-08T21:04:19;10.77;;;4.38;;
19113;SDS011;9689;51.052;13.772;2023-10-08T21:09:20;11.90;;;4.88;;
19113;SDS011;9689;51.052;13.772;2023-10-08T21:14:23;9.85;;;5.10;;
19113;SDS011;9689;51.052;13.772;2023-10-08T21:19:25;15.27;;;4.68;;
19113;SDS011;9689;51.052;13.772;2023-10-08T21:24:26;9.10;;;3.97;;
19113;SDS011;9689;51.052;13.772;2023-10-08T21:29:29;13.70;;;4.30;;
19113;SDS011;9689;51.052;13.772;2023-10-08T21:34:29;16.60;;;4.22;;
19113;SDS011;9689;51.052;13.772;2023-10-08T21:39:30;13.13;;;3.80;;
19113;SDS011;9689;51.052;13.772;2023-10-08T21:44:33;12.40;;;4.57;;
19113;SDS011;9689;51.052;13.772;2023-10-08T21:49:34;10.40;;;4.30;;
19113;SDS011;9689;51.052;13.772;2023-10-08T21:54:35;8.95;;;3.83;;
19113;SDS011;9689;51.052;13.772;2023-10-08T21:59:37;9.18;;;3.88;;
19113;SDS011;9689;51.052;13.772;2023-10-08T22:04:38;14.50;;;3.85;;
19113;SDS011;9689;51.052;13.772;2023-10-08T22:09:39;6.88;;;3.78;;
19113;SDS011;9689;51.052;13.772;2023-10-08T22:14:42;10.35;;;3.92;;
19113;SDS011;9689;51.052;13.772;2023-10-08T22:19:44;11.05;;;3.78;;
19113;SDS011;9689;51.052;13.772;2023-10-08T22:24:45;8.13;;;3.28;;
19113;SDS011;9689;51.052;13.772;2023-10-08T22:29:49;7.30;;;3.53;;
19113;SDS011;9689;51.052;13.772;2023-10-08T22:34:50;5.60;;;3.00;;
19113;SDS011;9689;51.052;13.772;2023-10-08T22:40:09;6.82;;;3.10;;
19113;SDS011;9689;51.052;13.772;2023-10-08T22:45:18;12.07;;;3.97;;
19113;SDS011;9689;51.052;13.772;2023-10-08T22:50:19;8.18;;;3.03;;
19113;SDS011;9689;51.052;13.772;2023-10-08T22:55:35;8.23;;;3.20;;
19113;SDS011;9689;51.052;13.772;2023-10-08T23:00:38;6.18;;;3.05;;
19113;SDS011;9689;51.052;13.772;2023-10-08T23:05:39;7.55;;;3.17;;
19113;SDS011;9689;51.052;13.772;2023-10-08T23:10:42;11.52;;;4.53;;
19113;SDS011;9689;51.052;13.772;2023-10-08T23:15:45;7.88;;;2.72;;
19113;SDS011;9689;51.052;13.772;2023-10-08T23:20:49;11.05;;;3.28;;
19113;SDS011;9689;51.052;13.772;2023-10-08T23:25:50;5.40;;;2.85;;
19113;SDS011;9689;51.052;13.772;2023-10-08T23:30:53;4.28;;;2.38;;
19113;SDS011;9689;51.052;13.772;2023-10-08T23:36:00;6.45;;;2.80;;
19113;SDS011;9689;51.052;13.772;2023-10-08T23:41:05;8.43;;;2.80;;
19113;SDS011;9689;51.052;13.772;2023-10-08T23:46:18;8.75;;;2.80;;
19113;SDS011;9689;51.052;13.772;2023-10-08T23:51:21;6.65;;;2.60;;
19113;SDS011;9689;51.052;13.772;2023-10-08T23:56:22;11.02;;;2.80;;
